createdAt,value
2023-05-01T00:01:06.486Z,5.75
2023-05-01T00:06:09.110Z,5.88
2023-05-01T00:11:12.760Z,4.03
2023-05-01T00:16:17.051Z,3.92
2023-05-01T00:21:19.316Z,5.25
2023-05-01T00:26:21.523Z,4.22
2023-05-01T00:31:26.153Z,4.65
2023-05-01T00:36:28.361Z,3.50
2023-05-01T00:41:30.664Z,5.18
2023-05-01T00:46:34.829Z,3.20
2023-05-01T00:51:37.302Z,4.82
2023-05-01T00:56:39.494Z,7.80
2023-05-01T01:01:44.607Z,5.05
2023-05-01T01:06:55.966Z,4.07
2023-05-01T01:12:17.132Z,3.15
2023-05-01T01:17:34.358Z,5.22
2023-05-01T01:22:39.980Z,5.18
2023-05-01T01:27:58.962Z,4.32
2023-05-01T01:33:19.845Z,5.25
2023-05-01T01:38:27.178Z,5.63
2023-05-01T01:43:36.648Z,12.60
2023-05-01T01:48:46.763Z,4.47
2023-05-01T01:53:54.307Z,4.18
2023-05-01T01:58:57.447Z,5.70
2023-05-01T02:04:01.792Z,5.07
2023-05-01T02:09:06.753Z,4.80
2023-05-01T02:14:11.639Z,4.45
2023-05-01T02:19:15.646Z,4.13
2023-05-01T02:24:19.760Z,4.47
2023-05-01T02:29:21.879Z,2.78
2023-05-01T02:34:23.906Z,5.90
2023-05-01T02:39:26.269Z,4.07
2023-05-01T02:44:33.050Z,4.63
2023-05-01T02:49:37.081Z,4.82
2023-05-01T02:54:39.396Z,3.67
2023-05-01T02:59:41.525Z,5.25
2023-05-01T03:04:44.046Z,6.47
2023-05-01T03:09:46.247Z,4.28
2023-05-01T03:14:48.426Z,3.90
2023-05-01T03:19:50.417Z,4.70
2023-05-01T03:24:52.526Z,1.77
2023-05-01T03:29:54.878Z,2.72
2023-05-01T03:34:57.871Z,5.07
2023-05-01T03:40:00.832Z,4.80
2023-05-01T03:45:21.251Z,5.28
2023-05-01T03:50:23.419Z,2.85
2023-05-01T03:55:26.983Z,3.60
2023-05-01T04:00:29.174Z,2.50
2023-05-01T04:05:31.372Z,1.75
2023-05-01T04:10:37.322Z,3.28
2023-05-01T04:15:40.097Z,2.65
2023-05-01T04:20:42.288Z,2.58
2023-05-01T04:25:44.583Z,2.38
2023-05-01T04:30:50.838Z,3.70
2023-05-01T04:35:52.900Z,2.03
2023-05-01T04:40:55.796Z,2.30
2023-05-01T04:45:58.420Z,3.50
2023-05-01T04:51:00.476Z,1.38
2023-05-01T04:56:06.294Z,3.38
2023-05-01T05:01:08.503Z,3.17
2023-05-01T05:06:11.714Z,3.58
2023-05-01T05:11:13.877Z,2.08
2023-05-01T05:16:33.558Z,1.83
2023-05-01T05:21:35.911Z,2.63
2023-05-01T05:26:38.899Z,1.60
2023-05-01T05:31:41.315Z,2.95
2023-05-01T05:36:43.490Z,2.42
2023-05-01T05:41:47.210Z,4.55
2023-05-01T05:46:49.823Z,3.53
2023-05-01T05:52:01.748Z,2.83
2023-05-01T05:57:04.281Z,2.97
2023-05-01T06:02:08.462Z,1.90
2023-05-01T06:07:10.713Z,2.47
2023-05-01T06:12:12.704Z,3.88
2023-05-01T06:17:15.618Z,3.35
2023-05-01T06:22:17.672Z,3.58
2023-05-01T06:27:34.108Z,2.38
2023-05-01T06:32:36.154Z,4.22
2023-05-01T06:37:38.773Z,4.68
2023-05-01T06:42:43.243Z,3.90
2023-05-01T06:47:45.288Z,4.82
2023-05-01T06:52:47.340Z,2.33
2023-05-01T06:57:49.427Z,2.33
2023-05-01T07:02:51.840Z,4.78
2023-05-01T07:08:01.268Z,2.58
2023-05-01T07:13:03.796Z,2.58
2023-05-01T07:18:08.727Z,2.13
2023-05-01T07:23:10.936Z,5.25
2023-05-01T07:28:13.099Z,2.95
2023-05-01T07:33:15.244Z,4.97
2023-05-01T07:38:18.562Z,4.35
2023-05-01T07:43:20.689Z,3.63
2023-05-01T07:48:22.850Z,4.05
2023-05-01T07:53:24.999Z,2.47
2023-05-01T07:58:27.076Z,3.97
2023-05-01T08:03:30.484Z,3.55
2023-05-01T08:08:32.716Z,4.13
2023-05-01T08:13:35.181Z,7.15
2023-05-01T08:18:37.230Z,4.38
2023-05-01T08:23:39.270Z,3.50
2023-05-01T08:28:42.345Z,3.40
2023-05-01T08:33:44.532Z,4.90
2023-05-01T08:38:46.533Z,4.72
2023-05-01T08:43:51.793Z,5.20
2023-05-01T08:48:57.979Z,4.00
2023-05-01T08:54:02.564Z,4.07
2023-05-01T08:59:05.985Z,2.83
2023-05-01T09:04:10.014Z,3.92
2023-05-01T09:14:14.363Z,4.00
2023-05-01T09:19:17.199Z,6.50
2023-05-01T09:24:19.272Z,2.83
2023-05-01T09:29:44.527Z,5.47
2023-05-01T09:34:48.253Z,3.97
2023-05-01T09:45:05.224Z,3.03
2023-05-01T09:50:07.961Z,5.05
2023-05-01T09:55:17.871Z,5.93
2023-05-01T10:00:22.425Z,4.55
2023-05-01T10:05:24.977Z,7.20
2023-05-01T10:10:28.051Z,6.57
2023-05-01T10:15:49.428Z,6.78
2023-05-01T10:20:51.764Z,4.90
2023-05-01T10:25:54.451Z,7.18
2023-05-01T10:30:58.095Z,7.43
2023-05-01T10:36:01.540Z,5.93
2023-05-01T10:41:04.226Z,7.03
2023-05-01T10:46:21.508Z,5.78
2023-05-01T10:51:27.544Z,4.43
2023-05-01T10:56:43.003Z,6.25
2023-05-01T11:01:52.093Z,7.80
2023-05-01T11:07:08.034Z,7.68
2023-05-01T11:12:52.007Z,7.00
2023-05-01T11:17:54.294Z,8.68
2023-05-01T11:22:57.364Z,9.35
2023-05-01T11:28:04.060Z,10.43
2023-05-01T11:33:10.229Z,6.40
2023-05-01T11:38:19.238Z,12.95
2023-05-01T11:43:21.300Z,9.68
2023-05-01T11:48:23.489Z,11.88
2023-05-01T11:53:25.635Z,17.20
2023-05-01T11:58:33.118Z,15.73
2023-05-01T12:03:44.826Z,15.77
2023-05-01T12:08:51.834Z,11.07
2023-05-01T12:13:54.215Z,13.43
2023-05-01T12:18:56.706Z,14.60
2023-05-01T12:24:13.165Z,13.60
2023-05-01T12:29:15.205Z,11.73
2023-05-01T12:34:17.493Z,13.35
2023-05-01T12:39:20.283Z,8.10
2023-05-01T12:44:27.278Z,9.02
2023-05-01T12:49:30.653Z,9.13
2023-05-01T12:54:38.045Z,7.85
2023-05-01T12:59:42.020Z,13.00
2023-05-01T13:04:45.189Z,12.38
2023-05-01T13:09:58.578Z,12.20
2023-05-01T13:15:01.268Z,12.20
2023-05-01T13:20:05.229Z,12.10
2023-05-01T13:25:20.778Z,12.40
2023-05-01T13:30:33.909Z,10.23
2023-05-01T13:35:36.459Z,10.43
2023-05-01T13:40:40.675Z,11.50
2023-05-01T13:45:42.906Z,9.73
2023-05-01T13:50:45.032Z,7.18
2023-05-01T13:55:47.420Z,6.53
2023-05-01T14:00:49.571Z,8.93
2023-05-01T14:05:51.707Z,9.25
2023-05-01T14:10:54.237Z,8.70
2023-05-01T14:15:56.227Z,10.10
2023-05-01T14:20:59.561Z,7.38
2023-05-01T14:26:01.885Z,7.90
2023-05-01T14:31:04.048Z,6.03
2023-05-01T14:36:06.328Z,10.07
2023-05-01T14:41:12.759Z,13.20
2023-05-01T14:46:18.762Z,8.05
2023-05-01T14:51:20.969Z,12.00
2023-05-01T14:56:23.790Z,8.10
2023-05-01T15:01:26.258Z,8.63
2023-05-01T15:06:28.702Z,9.48
2023-05-01T15:11:30.918Z,4.30
2023-05-01T15:16:33.193Z,6.85
2023-05-01T15:21:35.322Z,7.80
2023-05-01T15:26:37.354Z,10.77
2023-05-01T15:31:39.411Z,9.18
2023-05-01T15:36:41.932Z,4.88
2023-05-01T15:41:43.972Z,7.70
2023-05-01T15:46:49.261Z,6.97
2023-05-01T15:51:51.418Z,4.60
2023-05-01T15:56:53.880Z,5.70
2023-05-01T16:01:56.106Z,7.35
2023-05-01T16:06:58.164Z,5.70
2023-05-01T16:12:03.403Z,7.15
2023-05-01T16:17:06.871Z,6.80
2023-05-01T16:22:09.029Z,4.78
2023-05-01T16:27:14.469Z,6.35
2023-05-01T16:32:17.306Z,4.97
2023-05-01T16:37:22.289Z,6.18
2023-05-01T16:42:24.407Z,7.07
2023-05-01T16:47:26.488Z,6.82
2023-05-01T16:52:28.560Z,5.95
2023-05-01T16:57:30.733Z,10.10
2023-05-01T17:02:34.017Z,3.53
2023-05-01T17:07:36.411Z,5.00
2023-05-01T17:12:38.555Z,9.05
2023-05-01T17:17:40.989Z,7.75
2023-05-01T17:22:44.720Z,6.32
2023-05-01T17:27:46.947Z,5.35
2023-05-01T17:32:49.267Z,5.72
2023-05-01T17:37:51.424Z,6.50
2023-05-01T17:42:53.525Z,7.45
2023-05-01T17:47:55.610Z,5.90
2023-05-01T17:52:57.928Z,8.27
2023-05-01T17:58:00.002Z,10.13
2023-05-01T18:03:02.245Z,8.50
2023-05-01T18:08:04.616Z,5.78
2023-05-01T18:13:06.708Z,6.03
2023-05-01T18:18:08.921Z,7.65
2023-05-01T18:23:11.091Z,6.28
2023-05-01T18:28:13.491Z,7.60
2023-05-01T18:33:15.884Z,7.25
2023-05-01T18:38:18.051Z,6.30
2023-05-01T18:43:20.156Z,7.95
2023-05-01T18:48:22.307Z,6.38
2023-05-01T18:53:24.817Z,7.13
2023-05-01T18:58:26.814Z,9.25
2023-05-01T19:03:28.873Z,8.10
2023-05-01T19:08:31.804Z,7.93
2023-05-01T19:13:34.327Z,6.35
2023-05-01T19:18:38.481Z,4.65
2023-05-01T19:23:41.604Z,5.05
2023-05-01T19:28:43.858Z,4.85
2023-05-01T19:33:48.158Z,7.35
2023-05-01T19:38:50.284Z,8.18
2023-05-01T19:43:52.372Z,7.60
2023-05-01T19:48:54.473Z,6.78
2023-05-01T19:53:57.183Z,6.53
2023-05-01T19:58:59.281Z,5.50
2023-05-01T20:04:01.426Z,7.18
2023-05-01T20:09:04.157Z,4.10
2023-05-01T20:14:06.374Z,6.72
2023-05-01T20:19:10.151Z,5.90
2023-05-01T20:29:14.636Z,3.85
2023-05-01T20:34:16.740Z,3.45
2023-05-01T20:39:19.036Z,5.00
2023-05-01T20:44:21.172Z,5.82
2023-05-01T20:49:23.418Z,4.07
2023-05-01T20:54:25.542Z,4.82
2023-05-01T20:59:27.622Z,5.50
2023-05-01T21:04:29.752Z,3.38
2023-05-01T21:09:31.960Z,5.05
2023-05-01T21:14:34.114Z,5.85
2023-05-01T21:19:43.346Z,4.30
2023-05-01T21:24:46.653Z,3.55
2023-05-01T21:29:59.330Z,2.58
2023-05-01T21:35:02.659Z,4.05
2023-05-01T21:40:08.218Z,6.88
2023-05-01T21:45:15.268Z,4.78
2023-05-01T21:50:19.473Z,5.07
2023-05-01T21:55:25.223Z,3.28
2023-05-01T22:00:28.308Z,6.30
2023-05-01T22:05:33.075Z,5.03
2023-05-01T22:10:36.487Z,4.30
2023-05-01T22:15:38.642Z,8.05
2023-05-01T22:20:40.740Z,6.60
2023-05-01T22:25:42.931Z,5.35
2023-05-01T22:30:45.187Z,4.47
2023-05-01T22:35:47.295Z,4.70
2023-05-01T22:40:49.407Z,3.92
2023-05-01T22:45:51.528Z,4.80
2023-05-01T22:50:53.765Z,8.48
2023-05-01T22:55:55.885Z,4.40
2023-05-01T23:00:58.061Z,5.07
2023-05-01T23:06:00.264Z,10.10
2023-05-01T23:11:02.477Z,7.10
2023-05-01T23:16:04.938Z,4.93
2023-05-01T23:21:07.054Z,5.70
2023-05-01T23:26:11.133Z,7.50
2023-05-01T23:31:21.119Z,5.45
2023-05-01T23:36:23.322Z,5.47
2023-05-01T23:41:26.204Z,7.57
2023-05-01T23:46:28.433Z,8.35
2023-05-01T23:51:31.707Z,9.98
2023-05-01T23:56:33.740Z,10.10
